Time;durP1;ratioP1;P1;durP2;ratioP2;P2;SDS_P1;SDS_P2;PMS_P1;PMS_P2;Temp;Humidity;BMP_temperature;BMP_pressure;BME280_temperature;BME280_humidity;BME280_pressure;Samples;Min_cycle;Max_cycle;Signal;HPM_P1;HPM_P2
2021/08/16 00:00:16;;;;;;;13.07;11.77;;;19.70;99.90;;;;;;6232135;22;20197;-94
2021/08/16 00:02:45;;;;;;;13.30;12.00;;;19.80;99.90;;;;;;6231885;22;20421;-94
2021/08/16 00:05:12;;;;;;;15.07;13.67;;;19.80;99.90;;;;;;6230703;22;20744;-92
2021/08/16 00:07:38;;;;;;;14.90;13.30;;;19.80;99.90;;;;;;6231938;22;20788;-94
2021/08/16 00:10:04;;;;;;;14.17;12.87;;;19.70;99.90;;;;;;6232790;22;20496;-93
2021/08/16 00:12:31;;;;;;;15.37;13.20;;;19.80;99.90;;;;;;6233000;22;20745;-93
2021/08/16 00:14:57;;;;;;;15.10;13.60;;;19.70;99.90;;;;;;6233632;22;20400;-93
2021/08/16 00:17:23;;;;;;;15.03;12.97;;;19.80;99.90;;;;;;6234005;22;20382;-93
2021/08/16 00:19:48;;;;;;;15.10;13.57;;;19.80;99.90;;;;;;6231254;22;20715;-92
2021/08/16 00:22:15;;;;;;;16.47;14.00;;;19.70;99.90;;;;;;6232766;22;20163;-92
2021/08/16 00:24:40;;;;;;;13.73;12.33;;;19.80;99.90;;;;;;6234401;22;20205;-92
2021/08/16 00:27:06;;;;;;;15.10;13.70;;;19.70;99.90;;;;;;6232027;22;20791;-92
2021/08/16 00:29:32;;;;;;;13.40;12.20;;;19.80;99.90;;;;;;6232699;22;20599;-91
2021/08/16 00:31:58;;;;;;;14.13;12.83;;;19.90;99.90;;;;;;6234463;22;20265;-91
2021/08/16 00:34:23;;;;;;;14.80;13.37;;;19.80;99.90;;;;;;6229878;22;20159;-91
2021/08/16 00:36:49;;;;;;;15.60;14.07;;;19.80;99.90;;;;;;6228692;22;20163;-91
2021/08/16 00:39:15;;;;;;;15.50;13.30;;;19.80;99.90;;;;;;6231800;22;20238;-92
2021/08/16 00:41:44;;;;;;;15.13;13.77;;;19.80;99.90;;;;;;6230959;22;20429;-92
2021/08/16 00:44:10;;;;;;;16.17;14.57;;;19.80;99.90;;;;;;6231592;22;20652;-92
2021/08/16 00:46:37;;;;;;;14.67;13.27;;;19.80;99.90;;;;;;6231712;22;20390;-92
2021/08/16 00:49:03;;;;;;;16.20;14.57;;;19.70;99.90;;;;;;6230318;22;20227;-92
2021/08/16 00:51:33;;;;;;;16.67;14.97;;;19.80;99.90;;;;;;6232472;22;20640;-92
2021/08/16 00:54:00;;;;;;;15.10;13.57;;;19.70;99.90;;;;;;6232044;22;20182;-92
2021/08/16 00:56:26;;;;;;;14.83;13.33;;;19.70;99.90;;;;;;6231308;22;20405;-92
2021/08/16 00:58:59;;;;;;;14.30;13.00;;;19.80;99.90;;;;;;6234179;22;20414;-92
2021/08/16 01:01:25;;;;;;;15.57;13.97;;;19.80;99.90;;;;;;6232089;22;20400;-92
2021/08/16 01:03:51;;;;;;;13.93;12.73;;;19.80;99.90;;;;;;6229122;22;20445;-91
2021/08/16 01:06:17;;;;;;;13.10;11.83;;;19.80;99.90;;;;;;6233432;22;20902;-91
2021/08/16 01:08:50;;;;;;;17.30;13.10;;;19.80;99.90;;;;;;6230703;22;20155;-91
2021/08/16 01:11:16;;;;;;;14.10;12.73;;;19.80;99.90;;;;;;6230339;22;20927;-92
2021/08/16 01:13:43;;;;;;;15.20;13.80;;;19.80;99.90;;;;;;6231636;22;20417;-92
2021/08/16 01:16:09;;;;;;;16.03;14.50;;;19.80;99.90;;;;;;6233349;22;20394;-91
2021/08/16 01:18:36;;;;;;;15.07;13.77;;;19.80;99.90;;;;;;6231631;22;20394;-92
2021/08/16 01:21:04;;;;;;;15.10;13.70;;;19.90;99.90;;;;;;6231057;22;20836;-92
2021/08/16 01:23:30;;;;;;;14.90;13.70;;;19.90;99.90;;;;;;6233529;22;20923;-91
2021/08/16 01:26:05;;;;;;;16.00;14.33;;;19.90;99.90;;;;;;6232731;22;20382;-93
2021/08/16 01:28:31;;;;;;;14.20;12.80;;;19.80;99.90;;;;;;6233223;22;20661;-92
2021/08/16 01:30:59;;;;;;;15.20;13.33;;;19.80;99.90;;;;;;6230303;22;20451;-93
2021/08/16 01:33:26;;;;;;;16.77;13.83;;;19.80;99.90;;;;;;6234525;22;20166;-93
2021/08/16 01:35:52;;;;;;;15.43;13.87;;;19.80;99.90;;;;;;6236996;22;20386;-91
2021/08/16 01:38:24;;;;;;;18.20;14.00;;;19.90;99.90;;;;;;6228134;22;20617;-92
2021/08/16 01:40:50;;;;;;;14.63;13.20;;;20.00;99.90;;;;;;6234888;22;20159;-91
2021/08/16 01:43:16;;;;;;;13.93;12.63;;;20.00;99.90;;;;;;6234754;22;20540;-92
2021/08/16 01:45:41;;;;;;;15.83;14.47;;;19.90;99.90;;;;;;6231232;22;20220;-93
2021/08/16 01:48:07;;;;;;;15.30;13.80;;;20.00;99.90;;;;;;6235694;22;20163;-91
2021/08/16 01:50:34;;;;;;;16.50;13.60;;;19.90;99.90;;;;;;6231847;22;20167;-92
2021/08/16 01:52:59;;;;;;;15.47;13.97;;;19.90;99.90;;;;;;6234789;22;20169;-91
2021/08/16 01:55:25;;;;;;;15.60;13.90;;;19.90;99.90;;;;;;6237007;22;20472;-92
2021/08/16 01:57:51;;;;;;;15.93;14.00;;;19.80;99.90;;;;;;6233453;22;20209;-92
2021/08/16 02:00:17;;;;;;;14.77;13.37;;;19.80;99.90;;;;;;6231495;22;20167;-93
2021/08/16 02:02:44;;;;;;;13.87;12.60;;;19.90;99.90;;;;;;6233548;22;20644;-93
2021/08/16 02:05:11;;;;;;;15.20;12.50;;;19.80;99.90;;;;;;6233320;22;20406;-92
2021/08/16 02:07:39;;;;;;;15.00;13.60;;;19.80;99.90;;;;;;6233301;22;20205;-94
2021/08/16 02:10:08;;;;;;;14.43;12.93;;;19.80;99.90;;;;;;6233182;22;20819;-94
2021/08/16 02:12:34;;;;;;;14.47;13.00;;;19.80;99.90;;;;;;6232967;22;20389;-92
2021/08/16 02:15:02;;;;;;;11.27;10.13;;;19.90;99.90;;;;;;6237073;22;20712;-92
2021/08/16 02:17:28;;;;;;;12.43;11.00;;;19.90;99.90;;;;;;6233402;22;20167;-91
2021/08/16 02:19:53;;;;;;;12.57;11.27;;;19.90;99.90;;;;;;6231039;22;20748;-92
2021/08/16 02:22:19;;;;;;;12.50;11.03;;;19.80;99.90;;;;;;6233505;22;20171;-93
2021/08/16 02:24:45;;;;;;;10.87;9.83;;;19.70;99.90;;;;;;6231998;22;20195;-91
2021/08/16 02:27:10;;;;;;;14.73;10.17;;;19.70;99.90;;;;;;6231465;22;20470;-92
2021/08/16 02:29:36;;;;;;;12.23;10.73;;;19.60;99.90;;;;;;6232036;22;20182;-92
2021/08/16 02:32:24;;;;;;;11.73;10.40;;;19.60;99.90;;;;;;6232304;22;20162;-91
2021/08/16 02:34:50;;;;;;;10.37;9.37;;;19.50;99.90;;;;;;6233424;22;20372;-91
2021/08/16 02:37:18;;;;;;;9.50;8.67;;;19.50;99.90;;;;;;6230174;22;20394;-91
2021/08/16 02:39:43;;;;;;;9.93;8.40;;;19.50;99.90;;;;;;6230393;22;20167;-92
2021/08/16 02:42:09;;;;;;;9.03;8.13;;;19.50;99.90;;;;;;6231187;23;20408;-92
2021/08/16 02:44:35;;;;;;;11.83;8.17;;;19.50;99.90;;;;;;6258306;22;20589;-91
2021/08/16 02:47:01;;;;;;;8.60;7.87;;;19.50;99.90;;;;;;6231666;22;20432;-90
2021/08/16 02:49:26;;;;;;;7.23;6.63;;;19.40;99.90;;;;;;6231712;22;20201;-91
2021/08/16 02:51:52;;;;;;;10.60;7.10;;;19.50;99.90;;;;;;6229253;22;20377;-93
2021/08/16 02:54:18;;;;;;;6.90;6.30;;;19.40;99.90;;;;;;6228785;22;20159;-93
2021/08/16 02:56:43;;;;;;;7.87;7.10;;;19.30;99.90;;;;;;6236450;22;20612;-92
2021/08/16 02:59:09;;;;;;;7.00;6.20;;;19.30;99.90;;;;;;6232860;22;20556;-92
2021/08/16 03:01:40;;;;;;;7.90;6.70;;;19.30;99.90;;;;;;6232819;22;20625;-92
2021/08/16 03:04:06;;;;;;;6.70;5.67;;;19.20;99.90;;;;;;6231725;22;20229;-93
2021/08/16 03:06:32;;;;;;;7.20;6.50;;;19.20;99.90;;;;;;6232697;23;20398;-92
2021/08/16 03:08:57;;;;;;;7.17;5.80;;;19.20;99.90;;;;;;6233159;22;20213;-92
2021/08/16 03:11:24;;;;;;;6.47;5.87;;;19.10;99.90;;;;;;6234672;22;20242;-91
2021/08/16 03:13:49;;;;;;;5.80;5.30;;;19.10;99.90;;;;;;6233775;23;20167;-91
2021/08/16 03:16:15;;;;;;;7.23;5.73;;;19.10;99.90;;;;;;6234795;22;20400;-93
2021/08/16 03:18:41;;;;;;;7.03;6.33;;;19.00;99.90;;;;;;6231418;22;20695;-93
2021/08/16 03:21:06;;;;;;;8.50;6.13;;;18.90;99.90;;;;;;6232998;22;20167;-93
2021/08/16 03:23:32;;;;;;;7.83;5.40;;;19.00;99.90;;;;;;6230158;22;20205;-93
2021/08/16 03:25:58;;;;;;;6.30;5.70;;;18.90;99.90;;;;;;6234510;22;20163;-93
2021/08/16 03:28:26;;;;;;;8.80;6.20;;;18.90;99.90;;;;;;6231407;22;20496;-92
2021/08/16 03:30:52;;;;;;;7.50;6.83;;;18.80;99.90;;;;;;6259249;22;20163;-93
2021/08/16 03:33:17;;;;;;;7.47;6.67;;;18.80;99.90;;;;;;6258511;22;20493;-91
2021/08/16 03:35:43;;;;;;;7.33;6.63;;;18.80;99.90;;;;;;6232196;22;20354;-92
2021/08/16 03:38:09;;;;;;;7.80;7.00;;;18.80;99.90;;;;;;6233564;22;20217;-92
2021/08/16 03:40:35;;;;;;;7.57;6.77;;;18.80;99.90;;;;;;6258893;22;20468;-93
2021/08/16 03:43:01;;;;;;;8.23;7.53;;;18.70;99.90;;;;;;6234445;22;20529;-93
2021/08/16 03:45:27;;;;;;;8.00;7.20;;;18.60;99.90;;;;;;6230841;22;20608;-92
2021/08/16 03:47:53;;;;;;;8.30;7.60;;;18.60;99.90;;;;;;6232357;22;20257;-94
2021/08/16 03:50:19;;;;;;;9.40;8.00;;;18.60;99.90;;;;;;6230393;22;20401;-94
2021/08/16 03:52:45;;;;;;;8.70;7.73;;;18.60;99.90;;;;;;6231590;22;20628;-94
2021/08/16 03:55:10;;;;;;;8.50;7.60;;;18.60;99.90;;;;;;6232267;22;20165;-92
2021/08/16 03:57:36;;;;;;;9.47;8.47;;;18.60;99.90;;;;;;6234411;22;20166;-94
2021/08/16 04:00:19;;;;;;;8.93;8.03;;;18.60;99.90;;;;;;6232614;22;21621;-93
2021/08/16 04:02:46;;;;;;;9.00;8.20;;;18.60;99.90;;;;;;6256948;22;20162;-94
2021/08/16 04:05:12;;;;;;;9.10;8.30;;;18.60;99.90;;;;;;6234079;22;20480;-92
2021/08/16 04:07:45;;;;;;;11.03;9.70;;;18.70;99.90;;;;;;6229310;22;20436;-95
2021/08/16 04:10:13;;;;;;;11.10;9.27;;;18.70;99.90;;;;;;6235397;22;20173;-96
2021/08/16 04:12:38;;;;;;;9.13;8.37;;;18.70;99.90;;;;;;6259015;22;20394;-93
2021/08/16 04:15:13;;;;;;;10.37;9.37;;;18.70;99.90;;;;;;6235186;22;20466;-95
2021/08/16 04:17:39;;;;;;;9.60;8.70;;;18.70;99.90;;;;;;6259884;22;20802;-93
2021/08/16 04:20:06;;;;;;;9.53;8.73;;;18.70;99.90;;;;;;6228458;22;20402;-91
2021/08/16 04:22:31;;;;;;;13.50;9.00;;;18.70;99.90;;;;;;6259443;22;20200;-92
2021/08/16 04:24:58;;;;;;;10.73;9.73;;;18.70;99.90;;;;;;6234188;23;20489;-95
2021/08/16 04:27:24;;;;;;;10.67;9.57;;;18.70;99.90;;;;;;6239441;22;20541;-94
2021/08/16 04:29:50;;;;;;;11.23;10.10;;;18.70;99.90;;;;;;6257366;22;20405;-95
2021/08/16 04:32:16;;;;;;;10.70;9.70;;;18.70;99.90;;;;;;6236070;22;20436;-94
2021/08/16 04:34:41;;;;;;;11.30;10.17;;;18.80;99.90;;;;;;6231175;22;20185;-95
2021/08/16 04:37:07;;;;;;;12.90;10.43;;;18.70;99.90;;;;;;6232265;22;20241;-95
2021/08/16 04:39:33;;;;;;;11.30;10.30;;;18.80;99.90;;;;;;6234008;22;20242;-93
2021/08/16 04:41:58;;;;;;;12.90;11.60;;;18.80;99.90;;;;;;6234743;22;20197;-93
2021/08/16 04:44:24;;;;;;;12.07;10.97;;;19.00;99.90;;;;;;6236564;22;20198;-96
2021/08/16 04:46:50;;;;;;;12.97;11.07;;;19.20;99.90;;;;;;6243960;22;20151;-94
2021/08/16 04:49:16;;;;;;;11.57;10.40;;;19.40;99.90;;;;;;6235529;22;20437;-94
2021/08/16 04:51:43;;;;;;;13.83;11.70;;;19.60;99.90;;;;;;6241845;22;20171;-94
2021/08/16 04:54:09;;;;;;;13.37;12.00;;;19.70;99.90;;;;;;6235270;22;20186;-96
2021/08/16 04:56:35;;;;;;;11.50;10.50;;;19.70;99.90;;;;;;6237507;22;20397;-95
2021/08/16 04:59:20;;;;;;;12.80;11.60;;;19.70;99.90;;;;;;6241796;22;20186;-96
2021/08/16 05:01:48;;;;;;;14.57;11.00;;;19.70;99.90;;;;;;6251596;22;20163;-96
2021/08/16 05:04:14;;;;;;;15.43;11.20;;;19.60;99.90;;;;;;6251314;22;20444;-96
2021/08/16 05:06:42;;;;;;;12.40;11.20;;;19.60;99.90;;;;;;6248795;22;20417;-95
2021/08/16 05:09:11;;;;;;;12.63;11.37;;;19.70;99.90;;;;;;6243004;22;20428;-95
2021/08/16 05:12:01;;;;;;;12.10;10.97;;;19.80;99.90;;;;;;6241983;22;20445;-96
2021/08/16 05:14:27;;;;;;;13.37;12.03;;;19.80;99.90;;;;;;6240867;22;20443;-95
2021/08/16 05:16:57;;;;;;;12.90;11.53;;;19.80;99.90;;;;;;6244992;22;20390;-95
2021/08/16 05:19:23;;;;;;;12.70;11.20;;;19.80;99.90;;;;;;6243332;22;20170;-96
2021/08/16 05:21:49;;;;;;;12.20;11.07;;;19.70;99.90;;;;;;6243693;22;20398;-95
2021/08/16 05:24:14;;;;;;;11.43;10.33;;;19.70;99.90;;;;;;6238704;22;20205;-94
2021/08/16 05:26:40;;;;;;;10.93;9.63;;;19.80;99.90;;;;;;6240986;22;20584;-94
2021/08/16 05:29:06;;;;;;;9.43;8.63;;;19.80;99.90;;;;;;6240499;22;20162;-94
2021/08/16 05:31:31;;;;;;;10.20;8.87;;;19.90;99.90;;;;;;6237070;22;20162;-94
2021/08/16 05:33:57;;;;;;;9.93;8.93;;;19.90;99.90;;;;;;6237731;22;20198;-95
2021/08/16 05:36:23;;;;;;;14.90;10.37;;;20.00;99.90;;;;;;6235389;22;20163;-95
2021/08/16 05:38:48;;;;;;;10.23;9.13;;;20.00;99.90;;;;;;6239224;22;20162;-95
2021/08/16 05:41:14;;;;;;;10.50;9.40;;;19.90;99.90;;;;;;6233589;22;20606;-93
2021/08/16 05:43:39;;;;;;;9.90;8.50;;;19.90;99.90;;;;;;6234717;22;20194;-93
2021/08/16 05:46:05;;;;;;;11.07;9.97;;;19.90;99.90;;;;;;6237249;22;20159;-93
2021/08/16 05:48:31;;;;;;;11.23;9.17;;;19.90;99.90;;;;;;6233477;22;20194;-90
2021/08/16 05:50:57;;;;;;;10.13;9.03;;;20.00;99.90;;;;;;6232410;22;20224;-90
2021/08/16 05:53:26;;;;;;;10.90;9.20;;;19.90;99.90;;;;;;6259606;22;20249;-87
2021/08/16 05:55:54;;;;;;;12.13;9.00;;;19.90;99.90;;;;;;6234396;22;20396;-88
2021/08/16 05:58:24;;;;;;;9.57;8.60;;;19.90;99.90;;;;;;6258354;22;20898;-88
2021/08/16 06:01:00;;;;;;;10.20;8.80;;;19.90;99.90;;;;;;6234836;22;20386;-91
2021/08/16 06:03:29;;;;;;;8.70;7.80;;;19.90;99.90;;;;;;6235631;22;20448;-88
2021/08/16 06:06:01;;;;;;;8.43;7.63;;;19.80;99.90;;;;;;6231755;22;20778;-87
2021/08/16 06:08:46;;;;;;;9.90;7.93;;;19.80;99.90;;;;;;6209477;22;20405;-88
2021/08/16 06:11:19;;;;;;;8.70;7.67;;;19.90;99.90;;;;;;6259602;22;20709;-89
2021/08/16 06:13:54;;;;;;;8.70;7.60;;;19.80;99.90;;;;;;6232863;22;20406;-87
2021/08/16 06:16:32;;;;;;;10.33;8.20;;;19.90;99.90;;;;;;6235006;22;20396;-89
2021/08/16 06:19:01;;;;;;;11.63;9.10;;;19.90;99.90;;;;;;6235051;22;20774;-89
2021/08/16 06:21:27;;;;;;;11.53;9.07;;;20.00;99.90;;;;;;6236453;22;20455;-89
2021/08/16 06:23:57;;;;;;;10.10;9.00;;;20.00;99.90;;;;;;6260347;22;20441;-89
2021/08/16 06:26:28;;;;;;;10.43;8.70;;;20.10;99.90;;;;;;6236602;22;20385;-89
2021/08/16 06:28:59;;;;;;;9.80;8.20;;;20.30;99.90;;;;;;6237834;22;20433;-89
2021/08/16 06:31:43;;;;;;;10.77;9.67;;;20.30;99.90;;;;;;6235742;22;20791;-90
2021/08/16 06:34:13;;;;;;;10.07;9.17;;;20.30;99.90;;;;;;6238125;22;20417;-92
2021/08/16 06:36:42;;;;;;;8.20;7.40;;;20.30;99.90;;;;;;6260830;22;20862;-91
2021/08/16 06:39:21;;;;;;;10.80;8.37;;;20.20;99.90;;;;;;6235589;22;20470;-91
2021/08/16 06:41:51;;;;;;;8.63;7.73;;;20.00;99.90;;;;;;6261353;22;20463;-89
2021/08/16 06:44:27;;;;;;;10.30;8.50;;;20.00;99.90;;;;;;6235264;22;20445;-91
2021/08/16 06:47:01;;;;;;;9.10;7.30;;;20.10;99.90;;;;;;6260101;22;20393;-89
2021/08/16 06:49:31;;;;;;;9.30;8.27;;;20.10;99.90;;;;;;6253802;22;20414;-88
2021/08/16 06:52:01;;;;;;;8.13;7.40;;;20.10;99.90;;;;;;6236618;22;20478;-89
2021/08/16 06:54:47;;;;;;;8.60;7.13;;;20.10;99.90;;;;;;6259979;22;20884;-89
2021/08/16 06:57:24;;;;;;;8.93;8.13;;;20.20;99.90;;;;;;6238436;22;20835;-89
2021/08/16 06:59:51;;;;;;;8.70;7.73;;;20.30;99.90;;;;;;6260394;22;20451;-87
2021/08/16 07:02:23;;;;;;;9.00;7.40;;;20.20;99.90;;;;;;6261678;22;20406;-87
2021/08/16 07:04:50;;;;;;;6.40;5.80;;;20.30;99.90;;;;;;6236711;22;20516;-87
2021/08/16 07:07:39;;;;;;;7.50;6.43;;;20.20;99.90;;;;;;6238053;22;20390;-87
2021/08/16 07:10:12;;;;;;;10.80;5.87;;;20.30;99.90;;;;;;6235417;22;20448;-86
2021/08/16 07:12:44;;;;;;;6.30;5.70;;;20.30;99.90;;;;;;6237309;22;20421;-89
2021/08/16 07:15:11;;;;;;;6.87;5.10;;;20.30;99.90;;;;;;6210013;22;20413;-92
2021/08/16 07:17:51;;;;;;;6.47;5.87;;;20.30;99.90;;;;;;6237090;22;20378;-88
2021/08/16 07:20:27;;;;;;;9.10;5.70;;;20.40;99.90;;;;;;6235261;22;20734;-88
2021/08/16 07:22:52;;;;;;;6.50;5.60;;;20.30;99.90;;;;;;6235807;22;20196;-89
2021/08/16 07:25:18;;;;;;;6.13;5.20;;;20.20;99.90;;;;;;6234465;22;20770;-88
2021/08/16 07:28:06;;;;;;;7.10;5.00;;;20.20;99.90;;;;;;6205036;22;20632;-87
2021/08/16 07:30:32;;;;;;;7.37;5.10;;;20.20;99.90;;;;;;6232224;22;20609;-88
2021/08/16 07:33:04;;;;;;;5.30;4.80;;;20.40;99.90;;;;;;6234731;22;20406;-87
2021/08/16 07:35:31;;;;;;;6.43;5.07;;;20.50;99.90;;;;;;6234385;22;20162;-88
2021/08/16 07:38:00;;;;;;;5.13;4.63;;;20.40;99.90;;;;;;6232028;22;20435;-87
2021/08/16 07:40:28;;;;;;;5.07;4.67;;;20.40;99.90;;;;;;6233334;22;20390;-88
2021/08/16 07:42:54;;;;;;;5.17;4.67;;;20.50;99.90;;;;;;6259492;22;20440;-88
2021/08/16 07:48:21;;;;;;;4.70;4.30;;;20.70;99.90;;;;;;6237815;22;20155;-88
2021/08/16 07:50:53;;;;;;;6.53;4.83;;;20.80;99.90;;;;;;6234395;22;20397;-86
2021/08/16 07:53:19;;;;;;;4.80;4.40;;;21.00;99.90;;;;;;6234178;22;20394;-86
2021/08/16 07:55:45;;;;;;;7.83;5.00;;;21.10;99.90;;;;;;6235474;23;20394;-85
2021/08/16 07:58:14;;;;;;;4.70;4.30;;;21.00;99.90;;;;;;6235432;22;20159;-88
2021/08/16 08:00:40;;;;;;;6.07;4.37;;;21.00;99.90;;;;;;6232930;22;20745;-83
2021/08/16 08:03:06;;;;;;;5.00;4.53;;;20.90;99.90;;;;;;6235479;22;20429;-86
2021/08/16 08:05:32;;;;;;;4.80;4.30;;;21.20;99.90;;;;;;6234832;22;20163;-86
2021/08/16 08:08:00;;;;;;;4.80;4.30;;;21.30;99.90;;;;;;6235728;22;20393;-86
2021/08/16 08:10:26;;;;;;;6.40;3.63;;;21.40;99.90;;;;;;6260652;22;20167;-87
2021/08/16 08:13:01;;;;;;;4.43;4.03;;;21.80;99.90;;;;;;6236669;23;20382;-87
2021/08/16 08:15:27;;;;;;;5.57;4.30;;;22.10;99.90;;;;;;6235498;22;20397;-86
2021/08/16 08:17:58;;;;;;;6.50;4.77;;;22.10;99.90;;;;;;6205804;22;20386;-87
2021/08/16 08:20:24;;;;;;;6.80;4.13;;;21.80;99.90;;;;;;6262290;22;20405;-88
2021/08/16 08:22:50;;;;;;;4.80;4.10;;;21.40;99.90;;;;;;6262490;22;20382;-88
2021/08/16 08:25:16;;;;;;;7.73;4.60;;;21.20;99.90;;;;;;6258392;22;20281;-88
2021/08/16 08:27:42;;;;;;;6.77;4.10;;;21.00;99.90;;;;;;6237349;22;20424;-88
2021/08/16 08:30:12;;;;;;;4.93;3.70;;;21.00;99.90;;;;;;6260571;22;20242;-88
2021/08/16 08:33:05;;;;;;;5.43;4.67;;;21.00;99.90;;;;;;6235689;22;20510;-89
2021/08/16 08:35:31;;;;;;;4.50;3.90;;;20.90;99.90;;;;;;6208192;22;20856;-88
2021/08/16 08:37:58;;;;;;;4.00;3.23;;;20.90;99.90;;;;;;6210052;23;20382;-89
2021/08/16 08:40:25;;;;;;;5.40;4.37;;;20.90;99.90;;;;;;6235653;22;20393;-88
2021/08/16 08:42:55;;;;;;;4.53;4.13;;;20.80;99.90;;;;;;6260987;22;20496;-88
2021/08/16 08:45:26;;;;;;;7.53;4.20;;;20.90;99.90;;;;;;6238356;22;20390;-89
2021/08/16 08:47:56;;;;;;;5.17;4.63;;;21.00;99.90;;;;;;6235493;23;20390;-88
2021/08/16 08:50:25;;;;;;;6.33;3.93;;;21.20;99.90;;;;;;6233887;22;20479;-89
2021/08/16 08:52:56;;;;;;;4.53;4.03;;;21.40;99.90;;;;;;6237545;22;20904;-89
2021/08/16 08:55:22;;;;;;;7.73;4.27;;;21.50;99.90;;;;;;6260873;22;20397;-89
2021/08/16 08:57:48;;;;;;;4.57;4.17;;;21.50;99.90;;;;;;6236500;23;20386;-90
2021/08/16 09:00:18;;;;;;;4.83;4.17;;;21.20;99.90;;;;;;6235685;23;20886;-91
2021/08/16 09:03:05;;;;;;;6.13;3.80;;;21.70;99.90;;;;;;6235487;22;20366;-89
2021/08/16 09:05:32;;;;;;;4.47;4.03;;;22.00;99.90;;;;;;6235160;22;20771;-88
2021/08/16 09:07:59;;;;;;;4.27;3.87;;;22.10;99.90;;;;;;6260436;22;20448;-88
2021/08/16 09:10:27;;;;;;;4.67;4.03;;;22.20;99.90;;;;;;6259790;22;20459;-89
2021/08/16 09:13:00;;;;;;;4.60;3.80;;;22.10;99.90;;;;;;6261093;22;20939;-88
2021/08/16 09:15:34;;;;;;;5.87;4.50;;;21.90;99.90;;;;;;6257028;22;20406;-89
2021/08/16 09:18:12;;;;;;;5.47;3.90;;;21.80;99.90;;;;;;6239995;22;20402;-89
2021/08/16 09:20:38;;;;;;;5.10;4.27;;;21.30;99.90;;;;;;6236972;22;20386;-88
2021/08/16 09:23:11;;;;;;;6.00;4.10;;;21.30;99.90;;;;;;6236635;22;20259;-89
2021/08/16 09:25:38;;;;;;;5.57;4.60;;;21.50;99.90;;;;;;6258491;22;20436;-88
2021/08/16 09:28:05;;;;;;;6.13;4.80;;;21.50;99.90;;;;;;6261632;22;20389;-88
2021/08/16 09:30:41;;;;;;;9.37;4.77;;;21.50;99.90;;;;;;6236507;22;20728;-88
2021/08/16 09:33:23;;;;;;;5.70;4.10;;;21.30;99.90;;;;;;6260832;22;20393;-88
2021/08/16 09:35:59;;;;;;;4.40;4.00;;;21.40;99.90;;;;;;6259698;22;20397;-88
2021/08/16 09:38:37;;;;;;;6.20;4.53;;;21.40;99.90;;;;;;6235749;22;20388;-88
2021/08/16 09:41:23;;;;;;;5.27;4.30;;;21.30;99.90;;;;;;6235517;22;20448;-89
2021/08/16 09:44:08;;;;;;;6.63;4.47;;;21.50;99.90;;;;;;6236487;22;20461;-89
2021/08/16 09:46:35;;;;;;;8.00;6.50;;;21.40;99.90;;;;;;6262169;22;20425;-89
2021/08/16 09:49:03;;;;;;;7.40;4.80;;;21.50;99.90;;;;;;6262269;22;20397;-88
2021/08/16 09:51:34;;;;;;;5.50;3.70;;;21.30;99.90;;;;;;6262592;22;20426;-87
2021/08/16 09:54:03;;;;;;;4.83;4.17;;;21.00;99.90;;;;;;6259101;22;20393;-90
2021/08/16 09:56:30;;;;;;;6.07;4.50;;;21.10;99.90;;;;;;6237928;22;20390;-91
2021/08/16 09:58:57;;;;;;;7.73;4.57;;;21.00;99.90;;;;;;6210971;23;20406;-88
2021/08/16 10:01:24;;;;;;;4.83;3.90;;;21.00;99.90;;;;;;6237070;22;20971;-90
2021/08/16 10:03:50;;;;;;;6.67;4.27;;;21.10;99.90;;;;;;6238676;22;20445;-90
2021/08/16 10:06:22;;;;;;;5.43;4.10;;;21.10;99.90;;;;;;6240266;22;20393;-89
2021/08/16 10:08:56;;;;;;;5.60;4.07;;;21.00;99.90;;;;;;6262650;22;20400;-90
2021/08/16 10:11:22;;;;;;;6.17;4.03;;;21.00;99.90;;;;;;6261894;22;20409;-89
2021/08/16 10:14:25;;;;;;;5.77;4.13;;;20.90;99.90;;;;;;6262965;22;20468;-93
2021/08/16 10:16:54;;;;;;;4.73;3.60;;;20.90;99.90;;;;;;6239617;22;20393;-89
2021/08/16 10:19:24;;;;;;;5.37;4.77;;;20.90;99.90;;;;;;6263544;22;20404;-89
2021/08/16 10:21:55;;;;;;;3.90;3.50;;;20.70;99.90;;;;;;6263449;22;20402;-93
2021/08/16 10:24:30;;;;;;;5.27;3.57;;;20.90;99.90;;;;;;6264946;22;20451;-91
2021/08/16 10:27:09;;;;;;;6.80;4.40;;;21.00;99.90;;;;;;6240021;22;20697;-92
2021/08/16 10:29:38;;;;;;;5.53;3.40;;;21.30;99.90;;;;;;6266327;22;20405;-89
2021/08/16 10:32:18;;;;;;;4.60;4.20;;;21.10;99.90;;;;;;6239584;22;20390;-89
2021/08/16 10:34:44;;;;;;;4.80;3.40;;;21.20;99.90;;;;;;6263639;22;20455;-87
2021/08/16 10:37:12;;;;;;;4.57;4.00;;;21.30;99.90;;;;;;6239404;22;20398;-87
2021/08/16 10:39:39;;;;;;;4.90;4.00;;;21.20;99.90;;;;;;6263622;22;20171;-88
2021/08/16 10:42:14;;;;;;;5.27;3.80;;;21.10;99.90;;;;;;6261443;22;20386;-90
2021/08/16 10:45:00;;;;;;;4.57;3.53;;;21.10;99.90;;;;;;6238005;22;20451;-88
2021/08/16 10:47:47;;;;;;;7.10;3.50;;;21.30;99.90;;;;;;6238138;22;20389;-90
2021/08/16 10:50:19;;;;;;;4.73;3.70;;;21.50;99.90;;;;;;6239458;22;20419;-84
2021/08/16 10:52:58;;;;;;;8.23;3.50;;;21.60;99.90;;;;;;6261589;22;20389;-85
2021/08/16 10:55:45;;;;;;;5.00;3.93;;;21.50;99.90;;;;;;6263219;22;20447;-89
2021/08/16 10:58:12;;;;;;;4.73;3.70;;;21.20;99.90;;;;;;6234976;22;20386;-84
2021/08/16 11:00:40;;;;;;;4.50;3.40;;;21.40;99.90;;;;;;6250420;22;20429;-85
2021/08/16 11:03:08;;;;;;;3.80;3.40;;;21.30;99.90;;;;;;6257013;22;20488;-86
2021/08/16 11:05:36;;;;;;;5.50;3.47;;;21.40;99.90;;;;;;6232334;22;20443;-87
2021/08/16 11:08:04;;;;;;;4.00;3.60;;;21.30;99.90;;;;;;6232707;22;20386;-85
2021/08/16 11:10:39;;;;;;;3.87;3.20;;;21.00;99.90;;;;;;6251192;22;20405;-86
2021/08/16 11:13:16;;;;;;;4.23;3.63;;;21.50;99.90;;;;;;6237410;22;20397;-86
2021/08/16 11:15:45;;;;;;;4.60;3.40;;;21.30;99.90;;;;;;6233334;22;20429;-85
2021/08/16 11:18:14;;;;;;;5.57;3.80;;;21.40;99.90;;;;;;6233127;22;20476;-85
2021/08/16 11:20:41;;;;;;;4.90;3.70;;;21.70;99.90;;;;;;6232445;22;20406;-85
2021/08/16 11:23:07;;;;;;;4.13;3.50;;;22.20;99.40;;;;;;6258032;22;20437;-85
2021/08/16 11:25:53;;;;;;;4.37;3.97;;;21.90;98.90;;;;;;6233482;22;20409;-86
2021/08/16 11:28:25;;;;;;;4.47;3.40;;;22.60;99.60;;;;;;6259526;22;20393;-86
2021/08/16 11:31:06;;;;;;;4.87;4.00;;;22.90;98.90;;;;;;6258700;22;20418;-85
2021/08/16 11:33:34;;;;;;;4.20;3.60;;;22.90;99.10;;;;;;6211918;22;20778;-85
2021/08/16 11:36:12;;;;;;;5.10;3.43;;;22.60;98.80;;;;;;6259749;22;20452;-85
2021/08/16 11:38:43;;;;;;;5.40;3.83;;;22.40;98.80;;;;;;6208228;22;20402;-86
2021/08/16 11:41:15;;;;;;;5.47;3.57;;;22.20;99.00;;;;;;6258554;22;20402;-85
2021/08/16 11:43:41;;;;;;;5.57;4.17;;;22.00;99.50;;;;;;6258976;22;20441;-86
2021/08/16 11:46:17;;;;;;;7.47;4.47;;;21.90;99.90;;;;;;6233416;22;20426;-86
2021/08/16 11:48:53;;;;;;;6.03;3.30;;;22.10;99.90;;;;;;6261746;22;20401;-86
2021/08/16 11:51:20;;;;;;;6.00;4.03;;;22.20;99.10;;;;;;6259673;22;20397;-85
2021/08/16 11:53:47;;;;;;;4.40;3.90;;;22.40;99.10;;;;;;6259529;22;20390;-86
2021/08/16 11:56:13;;;;;;;4.50;3.73;;;22.40;98.80;;;;;;6260392;22;20401;-85
2021/08/16 11:58:42;;;;;;;7.23;3.93;;;22.40;99.60;;;;;;6233815;22;20390;-85
2021/08/16 12:01:12;;;;;;;3.80;3.13;;;22.70;99.20;;;;;;6260646;22;20435;-84
2021/08/16 12:03:38;;;;;;;3.83;3.47;;;23.60;98.50;;;;;;6258101;22;20793;-85
2021/08/16 12:06:16;;;;;;;5.30;3.87;;;23.60;97.20;;;;;;6258185;22;20847;-85
2021/08/16 12:08:44;;;;;;;5.70;4.40;;;23.20;96.90;;;;;;6235879;22;20456;-86
2021/08/16 12:11:16;;;;;;;3.93;3.37;;;23.30;96.40;;;;;;6207672;22;20393;-85
2021/08/16 12:13:44;;;;;;;3.70;3.40;;;23.70;96.60;;;;;;6232016;22;20409;-84
2021/08/16 12:16:18;;;;;;;4.33;3.73;;;23.40;96.70;;;;;;6233108;22;20490;-89
2021/08/16 12:18:55;;;;;;;5.97;3.80;;;22.30;97.60;;;;;;6259848;22;20433;-84
2021/08/16 12:21:21;;;;;;;5.37;4.00;;;21.80;98.40;;;;;;6260350;22;20891;-84
2021/08/16 12:24:00;;;;;;;4.73;3.10;;;21.60;99.20;;;;;;6231647;22;20877;-84
2021/08/16 12:26:33;;;;;;;5.10;3.63;;;21.80;99.50;;;;;;6257174;22;20389;-85
2021/08/16 12:29:00;;;;;;;4.37;3.40;;;22.00;98.90;;;;;;6234835;22;20473;-89
2021/08/16 12:31:30;;;;;;;7.43;3.50;;;22.60;97.50;;;;;;6233744;22;20888;-87
2021/08/16 12:33:57;;;;;;;4.10;3.70;;;22.40;97.30;;;;;;6233556;22;20398;-84
2021/08/16 12:37:03;;;;;;;4.37;3.50;;;22.50;97.90;;;;;;6234764;22;20420;-86
2021/08/16 12:39:33;;;;;;;4.20;3.40;;;22.80;97.00;;;;;;6234589;22;20398;-86
2021/08/16 12:42:09;;;;;;;5.90;3.77;;;22.80;97.40;;;;;;6237339;22;20743;-87
2021/08/16 12:44:36;;;;;;;5.10;3.63;;;22.90;97.30;;;;;;6208130;22;20905;-88
2021/08/16 12:47:04;;;;;;;5.40;3.67;;;23.30;96.60;;;;;;6207773;22;20795;-85
2021/08/16 12:49:33;;;;;;;5.67;3.50;;;22.90;96.20;;;;;;6232439;22;20398;-86
2021/08/16 12:52:14;;;;;;;6.47;4.03;;;22.80;96.20;;;;;;6211618;23;20946;-85
2021/08/16 12:54:40;;;;;;;3.40;3.10;;;22.30;96.60;;;;;;6204705;22;20406;-87